Pagina principale
METAR-TAF:

METAR-TAF

Aeroporti :

York Municipal Airport

York, Nebraska, Stati Uniti

latitudine: 40-53-48N, longitudine: 097-37-22W, altezza: 509 m

Osservazione

Il bollettino è stato emesso 34 minuti fa, alle 01:35 UTC
Vento 7 kt da sud/sud-est
Temperature 26°C
Umidità 70%
Pressione 1020 hPa
Visibilità: 16.1 km
Nubi sparse ad un'altezza di 7000 ft

METAR: KJYR 210135Z AUTO 15007KT 10SM SCT070 26/20 A3011 RMK AO2

Ora: 21:09 (02:09 UTC)


TAF: mancante

Osservazioni e previsioni meteorologiche di più di 4000 aeroporti (messaggi METAR e TAF).

Le stazioni disponibili sono rappresentate dai dischi gialli e rossi sulla carta.

Puntare il mouse per vedere il nome della stazione.

Clicca sopra per visualizzare le osservazioni e previsioni meteorologiche.

Per cambiare la mappa : fare clic sui pulsanti verdi con una croce nera per ingrandire, il pulsante verde con un trattino per diminuire, o sulla freccia verde per le mappe adiacenti.


METAR-TAF: